Time;durP1;ratioP1;P1;durP2;ratioP2;P2;SDS_P1;SDS_P2;PMS_P1;PMS_P2;Temp;Humidity;BMP_temperature;BMP_pressure;BME280_temperature;BME280_humidity;BME280_pressure;Samples;Min_cycle;Max_cycle;Signal;HPM_P1;HPM_P2
2020/12/29 00:00:20;;;;;;;13.57;6.40;;;17.50;56.90;;;;;;5084301;28;20696;-61
2020/12/29 00:02:48;;;;;;;13.95;7.07;;;17.50;56.90;;;;;;5084505;28;20584;-61
2020/12/29 00:05:14;;;;;;;10.23;6.32;;;17.50;56.90;;;;;;5084185;28;20216;-61
2020/12/29 00:07:39;;;;;;;11.82;6.03;;;17.50;56.90;;;;;;5084509;28;20177;-61
2020/12/29 00:10:05;;;;;;;14.90;5.93;;;17.50;56.90;;;;;;5084121;28;20265;-61
2020/12/29 00:12:31;;;;;;;10.48;6.35;;;17.40;56.80;;;;;;5084368;28;20235;-61
2020/12/29 00:14:56;;;;;;;10.25;6.18;;;17.50;56.80;;;;;;5084441;28;20178;-62
2020/12/29 00:17:22;;;;;;;10.85;6.25;;;17.40;56.90;;;;;;5084118;28;20534;-62
2020/12/29 00:19:47;;;;;;;10.27;5.90;;;17.40;56.80;;;;;;5084213;28;20607;-62
2020/12/29 00:22:13;;;;;;;10.68;6.40;;;17.40;56.80;;;;;;5084401;28;20181;-61
2020/12/29 00:24:38;;;;;;;11.00;5.50;;;17.40;56.80;;;;;;5084371;28;20224;-62
2020/12/29 00:27:04;;;;;;;11.10;6.28;;;17.40;56.80;;;;;;5084356;28;20587;-61
2020/12/29 00:29:30;;;;;;;11.23;5.88;;;17.40;56.70;;;;;;5083873;28;20170;-61
2020/12/29 00:31:56;;;;;;;10.73;5.75;;;17.40;56.80;;;;;;5084121;28;20238;-61
2020/12/29 00:34:21;;;;;;;7.18;5.05;;;17.30;56.70;;;;;;5084236;28;20173;-60
2020/12/29 00:36:47;;;;;;;9.50;5.70;;;17.30;56.70;;;;;;5084271;28;20249;-61
2020/12/29 00:39:12;;;;;;;9.18;5.22;;;17.30;56.70;;;;;;5084061;28;20190;-62
2020/12/29 00:41:38;;;;;;;10.35;6.00;;;17.30;56.70;;;;;;5083990;28;20185;-62
2020/12/29 00:44:03;;;;;;;8.93;4.90;;;17.30;56.70;;;;;;5084229;28;20201;-62
2020/12/29 00:46:29;;;;;;;9.05;5.55;;;17.30;56.80;;;;;;5065888;28;20185;-61
2020/12/29 00:48:55;;;;;;;10.45;5.97;;;17.20;56.60;;;;;;5084439;28;20182;-62
2020/12/29 00:51:20;;;;;;;9.57;4.82;;;17.20;56.70;;;;;;5083987;28;20682;-61
2020/12/29 00:53:46;;;;;;;10.40;5.68;;;17.20;56.60;;;;;;5065710;28;20227;-61
2020/12/29 00:56:12;;;;;;;12.23;5.93;;;17.20;56.60;;;;;;5083819;28;20193;-62
2020/12/29 00:58:38;;;;;;;7.60;5.38;;;17.20;56.70;;;;;;5084079;28;20170;-61
2020/12/29 01:01:10;;;;;;;7.90;4.82;;;17.20;56.70;;;;;;5083938;28;20181;-62
2020/12/29 01:03:37;;;;;;;8.95;5.28;;;17.20;56.60;;;;;;5083659;28;20543;-61
2020/12/29 01:06:03;;;;;;;9.48;5.30;;;17.10;56.70;;;;;;5065958;28;20279;-62
2020/12/29 01:08:28;;;;;;;10.10;5.07;;;17.10;56.60;;;;;;5083606;28;20213;-62
2020/12/29 01:10:57;;;;;;;8.75;5.00;;;17.20;56.70;;;;;;5084455;28;20536;-62
2020/12/29 01:13:23;;;;;;;8.80;5.28;;;17.10;56.60;;;;;;5087986;28;20166;-62
2020/12/29 01:15:49;;;;;;;8.60;4.88;;;17.10;56.60;;;;;;5087793;28;20177;-63
2020/12/29 01:18:15;;;;;;;9.18;5.28;;;17.10;56.70;;;;;;5069460;28;20662;-62
2020/12/29 01:20:40;;;;;;;6.90;4.80;;;17.10;56.60;;;;;;5087314;28;20174;-62
2020/12/29 01:23:06;;;;;;;7.45;4.85;;;17.10;56.60;;;;;;5069635;28;20628;-62
2020/12/29 01:25:31;;;;;;;10.23;5.20;;;17.10;56.60;;;;;;5087521;28;20222;-62
2020/12/29 01:27:57;;;;;;;6.93;4.68;;;17.10;56.70;;;;;;5087495;28;21013;-61
2020/12/29 01:30:23;;;;;;;6.35;4.43;;;17.00;56.60;;;;;;5087288;28;20166;-62
2020/12/29 01:32:48;;;;;;;8.55;4.47;;;17.10;56.60;;;;;;5087277;28;20178;-61
2020/12/29 01:35:14;;;;;;;8.07;4.13;;;17.00;56.60;;;;;;5086912;28;20185;-62
2020/12/29 01:37:43;;;;;;;7.93;4.40;;;17.00;56.60;;;;;;5086938;28;20230;-61
2020/12/29 01:40:09;;;;;;;8.88;4.90;;;17.00;56.60;;;;;;5086896;28;21041;-62
2020/12/29 01:42:35;;;;;;;8.98;5.07;;;17.00;56.60;;;;;;5086810;28;20700;-62
2020/12/29 01:45:00;;;;;;;8.70;4.80;;;17.00;56.70;;;;;;5068894;28;20210;-62
2020/12/29 01:47:26;;;;;;;8.35;5.18;;;17.00;56.70;;;;;;5086931;28;20534;-62
2020/12/29 01:49:52;;;;;;;8.35;4.80;;;17.00;56.70;;;;;;5086776;28;20186;-62
2020/12/29 01:52:18;;;;;;;7.82;4.75;;;17.00;56.60;;;;;;5068885;28;20967;-61
2020/12/29 01:54:44;;;;;;;8.93;4.72;;;17.00;56.60;;;;;;5068872;28;20177;-61
2020/12/29 01:57:09;;;;;;;7.57;4.38;;;16.90;56.50;;;;;;5068712;28;20170;-61
2020/12/29 01:59:35;;;;;;;6.00;4.20;;;16.90;56.50;;;;;;5068667;28;20349;-61
2020/12/29 02:02:00;;;;;;;6.75;4.25;;;16.90;56.60;;;;;;5068604;28;20170;-62
2020/12/29 02:04:26;;;;;;;7.03;4.70;;;16.90;56.50;;;;;;5068600;28;20217;-62
2020/12/29 02:06:52;;;;;;;7.07;4.03;;;16.90;56.50;;;;;;5086823;28;20189;-62
2020/12/29 02:09:17;;;;;;;7.30;4.63;;;16.80;56.50;;;;;;5068399;28;20285;-61
2020/12/29 02:11:43;;;;;;;7.70;4.25;;;16.90;56.60;;;;;;5086449;28;20177;-62
2020/12/29 02:14:08;;;;;;;5.53;4.30;;;16.90;56.60;;;;;;5086625;28;20701;-62
2020/12/29 02:16:40;;;;;;;7.63;4.50;;;16.80;56.50;;;;;;5086438;28;20177;-62
2020/12/29 02:19:06;;;;;;;7.90;4.25;;;16.90;56.50;;;;;;5086013;28;20169;-62
2020/12/29 02:21:35;;;;;;;7.10;4.20;;;16.80;56.50;;;;;;5086482;28;20176;-63
2020/12/29 02:24:01;;;;;;;7.03;4.10;;;16.80;56.50;;;;;;5067979;28;21037;-60
2020/12/29 02:26:27;;;;;;;6.45;4.18;;;16.80;56.50;;;;;;5086308;28;20273;-61
2020/12/29 02:28:59;;;;;;;8.98;4.68;;;16.80;56.50;;;;;;5086302;28;20932;-60
2020/12/29 02:31:25;;;;;;;7.47;3.88;;;16.80;56.50;;;;;;5068198;28;20178;-59
2020/12/29 02:33:50;;;;;;;7.82;4.40;;;16.80;56.50;;;;;;5086476;28;20272;-60
2020/12/29 02:36:16;;;;;;;7.10;4.40;;;16.80;56.50;;;;;;5086119;28;20550;-61
2020/12/29 02:38:42;;;;;;;7.75;4.32;;;16.80;56.50;;;;;;5085834;28;20228;-61
2020/12/29 02:41:07;;;;;;;6.82;4.20;;;16.80;56.50;;;;;;5068034;28;20948;-61
2020/12/29 02:43:33;;;;;;;6.20;4.03;;;16.80;56.50;;;;;;5085647;28;20631;-61
2020/12/29 02:45:59;;;;;;;4.88;3.65;;;16.80;56.50;;;;;;5085672;28;20217;-61
2020/12/29 02:48:24;;;;;;;5.07;4.07;;;16.70;56.40;;;;;;5085781;28;20174;-62
2020/12/29 02:50:50;;;;;;;4.38;3.33;;;16.80;56.50;;;;;;5085711;28;20932;-61
2020/12/29 02:53:15;;;;;;;5.25;3.70;;;16.70;56.40;;;;;;5085602;28;20517;-61
2020/12/29 02:55:42;;;;;;;6.00;4.07;;;16.70;56.40;;;;;;5085192;28;20554;-61
2020/12/29 02:58:08;;;;;;;5.63;3.78;;;16.70;56.40;;;;;;5085441;28;20224;-61
2020/12/29 03:00:33;;;;;;;6.72;3.83;;;16.70;56.40;;;;;;5085432;28;20985;-61
2020/12/29 03:02:59;;;;;;;6.50;4.40;;;16.70;56.40;;;;;;5085566;28;20492;-61
2020/12/29 03:05:24;;;;;;;6.72;3.85;;;16.70;56.50;;;;;;5085288;28;20217;-61
2020/12/29 03:07:50;;;;;;;5.50;3.40;;;16.70;56.40;;;;;;5085379;28;20174;-60
2020/12/29 03:10:15;;;;;;;8.18;4.28;;;16.70;56.50;;;;;;5085351;28;20643;-62
2020/12/29 03:12:41;;;;;;;5.22;3.45;;;16.70;56.50;;;;;;5085172;28;20568;-61
2020/12/29 03:15:07;;;;;;;4.97;3.35;;;16.60;56.40;;;;;;5067104;28;20224;-61
2020/12/29 03:17:33;;;;;;;4.50;3.50;;;16.60;56.40;;;;;;5085058;28;20174;-62
2020/12/29 03:19:58;;;;;;;7.30;3.78;;;16.60;56.40;;;;;;5067070;28;20176;-62
2020/12/29 03:22:24;;;;;;;5.95;3.72;;;16.60;56.40;;;;;;5085214;28;20647;-61
2020/12/29 03:24:49;;;;;;;6.32;3.45;;;16.60;56.40;;;;;;5085139;28;20205;-62
2020/12/29 03:27:15;;;;;;;5.63;3.70;;;16.60;56.40;;;;;;5084898;28;20196;-61
2020/12/29 03:29:40;;;;;;;6.47;3.80;;;16.60;56.40;;;;;;5085066;28;20170;-62
2020/12/29 03:32:06;;;;;;;4.45;3.33;;;16.60;56.40;;;;;;5085102;28;20178;-61
2020/12/29 03:34:40;;;;;;;5.85;3.58;;;16.60;56.40;;;;;;5084433;28;20619;-61
2020/12/29 03:37:06;;;;;;;4.43;3.13;;;16.60;56.40;;;;;;5084983;28;20172;-61
2020/12/29 03:39:32;;;;;;;6.47;3.70;;;16.60;56.40;;;;;;5084663;28;20546;-62
2020/12/29 03:41:58;;;;;;;5.90;4.40;;;16.60;56.40;;;;;;5084617;28;20170;-62
2020/12/29 03:44:23;;;;;;;3.83;2.90;;;16.60;56.40;;;;;;5084442;28;20284;-62
2020/12/29 03:46:49;;;;;;;4.30;3.03;;;16.60;56.40;;;;;;5084830;28;20539;-60
2020/12/29 03:49:15;;;;;;;4.80;3.47;;;16.60;56.40;;;;;;5084474;28;20177;-61
2020/12/29 03:51:40;;;;;;;6.40;3.30;;;16.50;56.30;;;;;;5084919;28;20181;-62
2020/12/29 03:54:06;;;;;;;4.47;3.13;;;16.50;56.40;;;;;;5084723;28;20201;-61
2020/12/29 03:56:31;;;;;;;4.55;3.30;;;16.50;56.40;;;;;;5084424;28;20531;-61
2020/12/29 03:58:57;;;;;;;5.32;3.40;;;16.50;56.40;;;;;;5066238;28;20257;-62
2020/12/29 04:01:22;;;;;;;5.30;3.63;;;16.50;56.30;;;;;;5084320;28;20185;-61
2020/12/29 04:03:48;;;;;;;3.90;3.25;;;16.50;56.30;;;;;;5084726;28;20173;-61
2020/12/29 04:06:14;;;;;;;4.75;3.03;;;16.50;56.40;;;;;;5066633;28;20201;-61
2020/12/29 04:08:39;;;;;;;5.20;3.13;;;16.50;56.40;;;;;;5084500;28;20185;-62
2020/12/29 04:11:05;;;;;;;5.15;3.33;;;16.50;56.30;;;;;;5084360;28;20174;-62
2020/12/29 04:13:30;;;;;;;5.07;3.38;;;16.50;56.40;;;;;;5084118;28;20515;-61
2020/12/29 04:15:57;;;;;;;4.00;2.88;;;16.50;56.40;;;;;;5084441;28;20182;-62
2020/12/29 04:18:22;;;;;;;3.95;2.97;;;16.50;56.40;;;;;;5084505;28;20203;-62
2020/12/29 04:20:48;;;;;;;5.05;3.15;;;16.50;56.40;;;;;;5084284;28;20213;-62
2020/12/29 04:23:14;;;;;;;5.20;3.22;;;16.40;56.30;;;;;;5084503;28;20170;-61
2020/12/29 04:25:39;;;;;;;4.35;3.00;;;16.40;56.30;;;;;;5084034;28;20213;-62
2020/12/29 04:28:05;;;;;;;3.85;2.80;;;16.40;56.30;;;;;;5084434;28;20182;-60
2020/12/29 04:30:30;;;;;;;6.97;3.45;;;16.40;56.30;;;;;;5084574;28;20265;-60
2020/12/29 04:32:56;;;;;;;4.40;3.00;;;16.40;56.30;;;;;;5084501;28;20615;-60
2020/12/29 04:35:21;;;;;;;5.22;3.30;;;16.40;56.40;;;;;;5084188;28;20185;-60
2020/12/29 04:37:47;;;;;;;3.72;2.55;;;16.40;56.30;;;;;;5084108;28;20197;-61
2020/12/29 04:40:12;;;;;;;5.00;3.50;;;16.40;56.30;;;;;;5083840;28;20185;-61
2020/12/29 04:42:38;;;;;;;3.67;2.88;;;16.40;56.30;;;;;;5084254;28;20553;-61
2020/12/29 04:45:04;;;;;;;4.30;2.85;;;16.40;56.20;;;;;;5065993;28;20402;-61
2020/12/29 04:47:30;;;;;;;5.40;3.47;;;16.40;56.30;;;;;;5087413;28;20474;-61
2020/12/29 04:49:57;;;;;;;3.38;2.90;;;16.40;56.20;;;;;;5070087;28;20927;-61
2020/12/29 04:52:22;;;;;;;4.53;2.75;;;16.40;56.20;;;;;;5088148;28;20390;-60
2020/12/29 04:54:51;;;;;;;4.70;3.38;;;16.30;56.20;;;;;;5088120;28;20943;-61
2020/12/29 04:57:17;;;;;;;5.75;3.20;;;16.30;56.20;;;;;;5088069;28;20607;-60
2020/12/29 04:59:43;;;;;;;3.88;2.92;;;16.30;56.20;;;;;;5087860;28;20178;-60
2020/12/29 05:02:08;;;;;;;4.07;2.83;;;16.30;56.20;;;;;;5087669;28;20624;-61
2020/12/29 05:04:34;;;;;;;4.68;2.90;;;16.30;56.20;;;;;;5087780;28;21009;-60
2020/12/29 05:06:59;;;;;;;3.63;2.67;;;16.30;56.20;;;;;;5087788;28;20182;-61
2020/12/29 05:09:26;;;;;;;3.35;2.92;;;16.20;56.10;;;;;;5069670;28;20182;-61
2020/12/29 05:11:52;;;;;;;4.47;3.13;;;16.30;56.20;;;;;;5087723;28;20214;-61
2020/12/29 05:14:19;;;;;;;4.13;2.70;;;16.20;56.20;;;;;;5087728;28;20922;-62
2020/12/29 05:16:44;;;;;;;6.30;3.20;;;16.30;56.20;;;;;;5069736;28;20689;-61
2020/12/29 05:19:14;;;;;;;3.13;2.60;;;16.30;56.20;;;;;;5087641;28;20202;-61
2020/12/29 05:21:40;;;;;;;4.20;3.03;;;16.20;56.20;;;;;;5087219;28;20185;-62
2020/12/29 05:24:16;;;;;;;3.60;2.80;;;16.30;56.20;;;;;;5087233;28;20279;-61
2020/12/29 05:26:43;;;;;;;4.15;2.80;;;16.20;56.20;;;;;;5087573;28;20177;-61
2020/12/29 05:29:13;;;;;;;3.97;2.60;;;16.20;56.20;;;;;;5069411;28;20219;-62
2020/12/29 05:31:43;;;;;;;3.47;2.72;;;16.20;56.20;;;;;;5087134;28;20525;-62
2020/12/29 05:34:17;;;;;;;3.97;2.90;;;16.20;56.20;;;;;;5087525;28;20212;-62
2020/12/29 05:36:43;;;;;;;3.50;3.10;;;16.20;56.20;;;;;;5087282;28;20177;-62
2020/12/29 05:39:09;;;;;;;4.28;2.67;;;16.20;56.20;;;;;;5069021;28;20182;-62
2020/12/29 05:41:42;;;;;;;2.92;2.63;;;16.20;56.20;;;;;;5087188;28;20174;-62
2020/12/29 05:44:08;;;;;;;2.50;2.15;;;16.20;56.20;;;;;;5086917;28;21042;-63
2020/12/29 05:46:34;;;;;;;4.00;2.92;;;16.20;56.20;;;;;;5086918;28;20208;-62
2020/12/29 05:49:00;;;;;;;3.00;2.60;;;16.20;56.20;;;;;;5087254;28;20227;-62
2020/12/29 05:51:26;;;;;;;3.00;2.60;;;16.20;56.20;;;;;;5086980;28;20189;-62
2020/12/29 05:53:58;;;;;;;3.45;2.67;;;16.10;56.20;;;;;;5086902;28;20246;-62
2020/12/29 05:56:26;;;;;;;3.63;2.60;;;16.20;56.20;;;;;;5069716;28;20181;-61
2020/12/29 05:58:52;;;;;;;3.40;2.42;;;16.20;56.20;;;;;;5068848;28;20264;-61
2020/12/29 06:01:17;;;;;;;2.80;2.50;;;16.20;56.30;;;;;;5069119;28;20635;-61
2020/12/29 06:03:43;;;;;;;3.88;2.50;;;16.20;56.30;;;;;;5086793;28;20178;-61
2020/12/29 06:06:08;;;;;;;3.60;2.70;;;16.20;56.50;;;;;;5051752;28;20220;-61
2020/12/29 06:08:37;;;;;;;3.45;2.45;;;16.30;56.60;;;;;;5068701;28;20198;-61
2020/12/29 06:11:12;;;;;;;3.40;2.60;;;16.60;56.40;;;;;;5068650;28;20269;-61
2020/12/29 06:13:38;;;;;;;3.63;2.33;;;16.80;56.10;;;;;;5086526;28;20173;-62
2020/12/29 06:16:04;;;;;;;2.88;2.45;;;17.00;55.90;;;;;;5086838;28;20173;-62
2020/12/29 06:18:34;;;;;;;2.95;2.40;;;17.30;55.40;;;;;;5068759;28;20224;-61
2020/12/29 06:21:03;;;;;;;2.65;2.08;;;17.60;54.80;;;;;;5086249;28;20174;-62
2020/12/29 06:23:29;;;;;;;3.00;2.47;;;17.80;54.20;;;;;;5068472;28;20166;-62
2020/12/29 06:25:54;;;;;;;2.15;1.95;;;18.10;53.80;;;;;;5068104;28;20213;-62
2020/12/29 06:28:20;;;;;;;2.92;2.28;;;18.20;53.50;;;;;;5068299;28;20227;-61
2020/12/29 06:30:45;;;;;;;3.28;2.28;;;18.40;53.30;;;;;;5068197;28;20192;-61
2020/12/29 06:33:16;;;;;;;2.47;1.80;;;18.40;53.10;;;;;;5085945;28;20192;-61
2020/12/29 06:35:42;;;;;;;2.88;2.13;;;18.50;53.00;;;;;;5068496;28;20174;-61
2020/12/29 06:38:22;;;;;;;2.33;1.90;;;18.60;52.90;;;;;;5067870;28;20174;-62
2020/12/29 06:40:47;;;;;;;2.75;2.20;;;18.70;52.90;;;;;;5086112;28;20181;-61
2020/12/29 06:43:13;;;;;;;2.22;1.73;;;18.70;52.80;;;;;;5067906;28;20170;-62
2020/12/29 06:45:39;;;;;;;2.60;2.08;;;18.70;52.80;;;;;;5067520;28;20304;-62
2020/12/29 06:48:20;;;;;;;2.25;2.03;;;18.70;52.80;;;;;;5085732;28;20205;-61
2020/12/29 06:50:46;;;;;;;2.72;2.13;;;18.70;52.90;;;;;;5085849;28;20174;-62
2020/12/29 06:53:18;;;;;;;2.05;1.80;;;18.70;53.00;;;;;;5068028;28;20185;-61
2020/12/29 06:55:45;;;;;;;2.95;2.30;;;18.70;53.00;;;;;;5085896;28;20654;-62
2020/12/29 06:58:11;;;;;;;2.30;2.10;;;18.70;53.00;;;;;;5085652;28;20181;-61
2020/12/29 07:00:37;;;;;;;3.50;2.13;;;18.60;53.00;;;;;;5067568;28;20181;-60
2020/12/29 07:03:02;;;;;;;2.75;2.30;;;18.60;53.20;;;;;;5085432;28;20253;-61
2020/12/29 07:05:29;;;;;;;3.53;2.45;;;18.50;53.30;;;;;;5085576;28;20208;-61
2020/12/29 07:07:58;;;;;;;2.88;2.05;;;18.40;53.40;;;;;;5085342;28;20178;-61
2020/12/29 07:10:44;;;;;;;1.90;1.65;;;18.30;53.70;;;;;;5084960;28;20511;-61
2020/12/29 07:13:11;;;;;;;2.55;2.03;;;18.20;53.80;;;;;;5085106;28;20178;-60
2020/12/29 07:15:47;;;;;;;2.10;1.90;;;18.10;53.90;;;;;;5066975;28;20603;-62
2020/12/29 07:18:23;;;;;;;1.65;1.50;;;18.10;54.00;;;;;;5067290;28;20395;-61
2020/12/29 07:20:50;;;;;;;2.30;2.10;;;18.10;54.10;;;;;;5085470;28;20278;-61
2020/12/29 07:23:18;;;;;;;2.88;2.05;;;18.00;54.10;;;;;;5085641;28;20186;-62
2020/12/29 07:25:48;;;;;;;2.75;1.88;;;18.00;54.20;;;;;;5085161;28;20308;-61
2020/12/29 07:28:13;;;;;;;2.65;2.15;;;17.90;54.30;;;;;;5085505;28;20591;-61
2020/12/29 07:30:39;;;;;;;3.70;2.45;;;17.80;54.40;;;;;;5085274;28;20178;-61
2020/12/29 07:33:06;;;;;;;1.98;1.80;;;17.70;54.60;;;;;;5085646;28;20178;-61
2020/12/29 07:35:32;;;;;;;2.50;2.10;;;17.70;54.70;;;;;;5085029;28;20531;-61
2020/12/29 07:38:00;;;;;;;2.08;1.92;;;17.70;54.80;;;;;;5067282;28;20288;-61
2020/12/29 07:40:26;;;;;;;2.22;1.88;;;17.60;54.70;;;;;;5066847;28;20173;-62
2020/12/29 07:42:52;;;;;;;1.80;1.70;;;17.60;54.70;;;;;;5084941;28;20178;-62
2020/12/29 07:45:18;;;;;;;2.20;2.00;;;17.70;54.70;;;;;;5084855;28;20292;-61
2020/12/29 07:47:43;;;;;;;2.17;1.98;;;17.70;54.70;;;;;;5085389;28;20704;-62
2020/12/29 07:50:09;;;;;;;2.92;2.08;;;17.60;54.60;;;;;;5084682;28;20178;-61
2020/12/29 07:52:34;;;;;;;2.35;2.15;;;17.60;54.70;;;;;;5084668;28;20257;-61
2020/12/29 07:55:16;;;;;;;2.08;1.92;;;17.60;54.90;;;;;;5085007;28;20190;-61
2020/12/29 07:57:42;;;;;;;2.55;1.80;;;17.50;54.90;;;;;;5084479;28;20170;-61
2020/12/29 08:00:09;;;;;;;2.30;2.03;;;17.50;55.00;;;;;;5084297;28;20201;-61
2020/12/29 08:02:35;;;;;;;3.40;1.70;;;17.40;55.10;;;;;;5084470;28;20264;-58
2020/12/29 08:05:00;;;;;;;2.08;1.88;;;17.40;55.10;;;;;;5084354;28;20710;-60
2020/12/29 08:07:26;;;;;;;1.80;1.70;;;17.40;55.10;;;;;;5084127;28;20544;-61
2020/12/29 08:09:52;;;;;;;1.80;1.70;;;17.40;55.10;;;;;;5084375;28;20249;-60
2020/12/29 08:12:17;;;;;;;2.17;1.80;;;17.50;55.00;;;;;;5084280;28;20239;-60
2020/12/29 08:14:43;;;;;;;3.17;1.80;;;17.50;54.90;;;;;;5084512;28;20181;-61
2020/12/29 08:17:09;;;;;;;2.13;1.77;;;17.50;54.90;;;;;;5084366;28;20174;-61
2020/12/29 08:19:35;;;;;;;1.95;1.80;;;17.50;54.90;;;;;;5084170;28;20170;-62
2020/12/29 08:22:07;;;;;;;1.77;1.60;;;17.50;55.00;;;;;;5084556;28;20174;-62
2020/12/29 08:24:33;;;;;;;1.98;1.77;;;17.40;55.00;;;;;;5083805;28;20209;-61
2020/12/29 08:26:59;;;;;;;2.03;1.88;;;17.40;55.10;;;;;;5084265;28;20193;-61
2020/12/29 08:29:24;;;;;;;1.60;1.50;;;17.40;55.10;;;;;;5083864;28;20173;-61
2020/12/29 08:32:07;;;;;;;1.80;1.70;;;17.30;55.20;;;;;;5084137;28;20182;-61
2020/12/29 08:34:33;;;;;;;1.45;1.35;;;17.30;55.20;;;;;;5084447;28;20216;-61
2020/12/29 08:37:02;;;;;;;1.98;1.77;;;17.30;55.20;;;;;;5066541;28;20795;-62
2020/12/29 08:39:39;;;;;;;1.73;1.63;;;17.40;55.20;;;;;;5066457;28;20177;-62
2020/12/29 08:42:05;;;;;;;4.68;2.33;;;17.40;55.10;;;;;;5084022;28;20173;-62
2020/12/29 08:44:31;;;;;;;2.03;1.60;;;17.40;55.10;;;;;;5065750;28;20193;-62
2020/12/29 08:46:57;;;;;;;1.70;1.60;;;17.30;55.10;;;;;;5084078;28;20176;-62
2020/12/29 08:49:29;;;;;;;2.72;1.95;;;17.30;55.10;;;;;;5084283;28;20170;-63
2020/12/29 08:51:55;;;;;;;2.33;1.60;;;17.30;55.30;;;;;;5083825;28;20180;-62
2020/12/29 08:54:20;;;;;;;2.35;1.90;;;17.30;55.20;;;;;;5084016;28;20166;-63
2020/12/29 08:56:46;;;;;;;2.25;1.63;;;17.20;55.20;;;;;;5083922;28;20312;-62
2020/12/29 08:59:19;;;;;;;1.98;1.83;;;17.20;55.30;;;;;;5083874;28;20627;-63
2020/12/29 09:01:59;;;;;;;2.70;2.03;;;17.20;55.40;;;;;;5083847;28;20959;-62
2020/12/29 09:04:25;;;;;;;1.83;1.73;;;17.20;55.30;;;;;;5084335;28;20262;-61
2020/12/29 09:07:10;;;;;;;1.77;1.63;;;17.20;55.30;;;;;;5083966;28;20178;-63
2020/12/29 09:09:58;;;;;;;1.77;1.67;;;17.20;55.30;;;;;;5065909;28;20252;-61
2020/12/29 09:12:31;;;;;;;1.73;1.63;;;17.20;55.20;;;;;;5083635;28;20235;-64
2020/12/29 09:15:06;;;;;;;2.15;1.73;;;17.20;55.30;;;;;;5083700;28;20178;-63
2020/12/29 09:17:32;;;;;;;1.33;1.23;;;17.10;55.20;;;;;;5065978;28;20165;-63
2020/12/29 09:20:09;;;;;;;1.90;1.50;;;17.10;55.20;;;;;;5083924;28;20185;-63
2020/12/29 09:22:46;;;;;;;1.98;1.40;;;17.10;55.20;;;;;;5083590;28;20177;-62
2020/12/29 09:25:25;;;;;;;1.60;1.50;;;17.10;55.40;;;;;;5083228;28;21037;-62
2020/12/29 09:28:09;;;;;;;1.80;1.70;;;17.10;55.40;;;;;;5067200;28;20268;-63
2020/12/29 09:30:35;;;;;;;2.08;1.40;;;17.10;55.30;;;;;;5083584;28;20258;-60
2020/12/29 09:33:00;;;;;;;2.22;1.70;;;17.20;55.30;;;;;;5085438;28;20182;-62
2020/12/29 09:35:26;;;;;;;1.85;1.65;;;17.20;55.50;;;;;;5087293;28;20174;-62
2020/12/29 09:37:55;;;;;;;1.80;1.52;;;17.30;55.60;;;;;;5086994;28;20173;-63
2020/12/29 09:40:21;;;;;;;2.00;1.90;;;17.30;55.70;;;;;;5087267;28;20264;-65
2020/12/29 09:42:46;;;;;;;2.50;1.48;;;17.30;55.70;;;;;;5087008;28;20308;-64
2020/12/29 09:45:12;;;;;;;2.75;1.80;;;17.30;55.80;;;;;;5086858;28;20209;-63
2020/12/29 09:47:37;;;;;;;2.33;1.65;;;17.50;55.80;;;;;;5086985;28;20639;-63
2020/12/29 09:50:03;;;;;;;4.65;1.90;;;17.50;55.70;;;;;;5068970;28;20682;-64
2020/12/29 09:52:30;;;;;;;3.65;2.10;;;17.60;55.70;;;;;;5068986;28;20616;-64
2020/12/29 09:54:55;;;;;;;1.83;1.73;;;17.60;55.50;;;;;;5069009;28;20166;-64
2020/12/29 09:57:21;;;;;;;2.85;1.65;;;17.70;55.40;;;;;;5086344;28;20204;-63
2020/12/29 09:59:47;;;;;;;2.13;1.92;;;17.70;55.40;;;;;;5086760;28;20178;-61
2020/12/29 10:02:12;;;;;;;3.60;2.05;;;17.70;55.30;;;;;;5086652;28;20173;-63
2020/12/29 10:04:38;;;;;;;3.00;2.15;;;17.60;55.30;;;;;;5086480;28;20904;-64
2020/12/29 10:07:03;;;;;;;2.63;1.73;;;17.60;55.50;;;;;;5086419;28;20265;-64
2020/12/29 10:09:29;;;;;;;3.78;1.88;;;17.60;55.60;;;;;;5086374;28;20231;-64
2020/12/29 10:11:54;;;;;;;1.80;1.65;;;17.50;55.60;;;;;;5086126;28;20407;-64
2020/12/29 10:14:20;;;;;;;3.40;1.83;;;17.50;55.60;;;;;;5086600;28;20589;-63
2020/12/29 10:16:45;;;;;;;3.88;2.03;;;17.60;55.70;;;;;;5086477;28;20663;-63
2020/12/29 10:19:11;;;;;;;2.03;1.77;;;17.60;55.60;;;;;;5086511;28;20202;-63
2020/12/29 10:21:37;;;;;;;2.17;1.60;;;17.70;55.80;;;;;;5086273;28;20169;-64
2020/12/29 10:24:02;;;;;;;1.60;1.50;;;17.70;55.50;;;;;;5085470;28;20191;-64
2020/12/29 10:26:28;;;;;;;1.38;1.27;;;17.80;55.40;;;;;;5085308;28;20250;-64
2020/12/29 10:28:53;;;;;;;3.25;1.80;;;17.80;55.40;;;;;;5085472;28;20204;-64
2020/12/29 10:31:19;;;;;;;1.60;1.50;;;17.80;55.40;;;;;;5085459;28;20516;-64
2020/12/29 10:33:45;;;;;;;1.50;1.40;;;17.80;55.50;;;;;;5085257;28;20250;-63
2020/12/29 10:36:10;;;;;;;2.15;1.63;;;17.70;55.50;;;;;;5085463;28;20264;-63
2020/12/29 10:38:36;;;;;;;1.60;1.50;;;17.70;55.60;;;;;;5085743;28;20588;-63
2020/12/29 10:41:01;;;;;;;2.67;1.48;;;17.70;55.60;;;;;;5086064;28;20170;-63
2020/12/29 10:43:27;;;;;;;2.00;1.55;;;17.70;55.80;;;;;;5085902;28;20180;-63
2020/12/29 10:45:52;;;;;;;2.15;1.42;;;17.60;55.80;;;;;;5086258;28;20201;-63
2020/12/29 10:48:18;;;;;;;3.20;1.38;;;17.60;55.80;;;;;;5085970;28;20178;-64
2020/12/29 10:50:43;;;;;;;1.60;1.50;;;17.80;55.80;;;;;;5086024;28;20662;-64
2020/12/29 10:53:09;;;;;;;1.33;1.20;;;17.90;55.50;;;;;;5085533;28;20170;-63
2020/12/29 10:55:34;;;;;;;1.85;1.73;;;18.10;55.30;;;;;;5085910;28;20178;-63
2020/12/29 10:58:00;;;;;;;3.78;1.55;;;18.30;54.90;;;;;;5085849;28;20201;-63
2020/12/29 11:00:25;;;;;;;4.53;1.52;;;18.60;54.50;;;;;;5085569;28;20180;-64
2020/12/29 11:02:51;;;;;;;1.90;1.30;;;18.70;54.10;;;;;;5085344;28;20239;-64
2020/12/29 11:05:16;;;;;;;1.27;1.17;;;18.90;53.80;;;;;;5085286;28;21003;-63
2020/12/29 11:07:42;;;;;;;1.73;0.90;;;19.20;53.50;;;;;;5085500;28;20613;-63
2020/12/29 11:10:07;;;;;;;1.80;1.10;;;19.30;53.20;;;;;;5085226;28;20931;-62
2020/12/29 11:12:33;;;;;;;1.60;1.20;;;19.50;53.00;;;;;;5085294;28;20178;-63
2020/12/29 11:14:59;;;;;;;1.63;1.52;;;19.50;53.00;;;;;;5085236;28;20188;-63
2020/12/29 11:17:24;;;;;;;1.70;1.15;;;19.50;52.90;;;;;;5085316;28;20174;-66
2020/12/29 11:19:50;;;;;;;1.38;1.20;;;19.50;53.00;;;;;;5086154;28;20261;-71
2020/12/29 11:22:15;;;;;;;1.40;1.30;;;19.50;52.80;;;;;;5085262;28;20196;-65
2020/12/29 11:24:41;;;;;;;1.75;1.30;;;19.40;52.90;;;;;;5084958;28;20308;-65
2020/12/29 11:27:06;;;;;;;2.00;1.23;;;19.40;53.10;;;;;;5084853;28;20860;-65
2020/12/29 11:29:32;;;;;;;2.65;1.55;;;19.40;53.30;;;;;;5084855;28;20249;-65
2020/12/29 11:31:58;;;;;;;1.45;1.23;;;19.40;53.40;;;;;;5084802;28;20173;-66
2020/12/29 11:34:24;;;;;;;1.48;1.20;;;19.40;53.40;;;;;;5084879;28;20177;-66
2020/12/29 11:36:49;;;;;;;3.22;1.73;;;19.30;53.50;;;;;;5084784;28;20184;-65
2020/12/29 11:39:15;;;;;;;2.53;1.42;;;19.30;53.60;;;;;;5084805;28;20182;-65
2020/12/29 11:41:40;;;;;;;2.08;1.23;;;19.30;53.70;;;;;;5085005;28;20169;-65
2020/12/29 11:44:06;;;;;;;2.33;1.15;;;19.30;53.70;;;;;;5085006;28;20209;-65
2020/12/29 11:46:32;;;;;;;1.20;1.10;;;19.30;53.70;;;;;;5084741;28;20205;-66
2020/12/29 11:48:58;;;;;;;1.40;1.30;;;19.30;53.80;;;;;;5084620;28;20221;-66
2020/12/29 11:51:24;;;;;;;1.17;1.00;;;19.30;53.90;;;;;;5084429;28;20620;-66
2020/12/29 11:53:49;;;;;;;1.52;1.10;;;19.30;53.90;;;;;;5084592;28;20201;-65
2020/12/29 11:56:15;;;;;;;1.60;1.50;;;19.30;54.10;;;;;;5066196;28;20182;-65
2020/12/29 11:58:40;;;;;;;1.35;1.10;;;19.40;53.80;;;;;;5084556;28;20173;-66
2020/12/29 12:01:06;;;;;;;1.23;1.10;;;19.40;53.80;;;;;;5084494;28;20636;-65
2020/12/29 12:03:31;;;;;;;1.60;1.00;;;19.40;54.00;;;;;;5084591;28;20550;-65
2020/12/29 12:05:57;;;;;;;1.67;1.10;;;19.30;54.00;;;;;;5084541;28;20201;-65
2020/12/29 12:08:23;;;;;;;2.72;1.55;;;19.20;54.10;;;;;;5084291;28;20170;-65
2020/12/29 12:10:48;;;;;;;1.25;1.15;;;19.20;54.20;;;;;;5084176;28;20256;-66
2020/12/29 12:13:14;;;;;;;1.73;1.23;;;19.10;54.30;;;;;;5084333;28;20181;-66
2020/12/29 12:15:39;;;;;;;2.28;1.52;;;19.00;54.50;;;;;;5084524;28;20174;-64
2020/12/29 12:18:05;;;;;;;1.73;1.33;;;19.00;54.60;;;;;;5084430;28;20169;-65
2020/12/29 12:20:30;;;;;;;1.83;1.20;;;19.00;54.60;;;;;;5084084;28;20173;-65
2020/12/29 12:22:56;;;;;;;1.50;1.40;;;19.00;54.70;;;;;;5084157;28;20173;-66
2020/12/29 12:25:21;;;;;;;2.05;1.30;;;18.90;54.80;;;;;;5084553;28;20221;-65
2020/12/29 12:27:47;;;;;;;2.20;1.10;;;18.90;54.80;;;;;;5066538;28;20297;-66
2020/12/29 12:30:12;;;;;;;1.50;1.10;;;18.80;54.90;;;;;;5066173;28;20216;-65
2020/12/29 12:32:38;;;;;;;1.67;1.00;;;18.80;55.00;;;;;;5083942;28;20951;-62
2020/12/29 12:35:04;;;;;;;0.90;0.90;;;18.70;55.10;;;;;;5083948;28;20536;-65
2020/12/29 12:37:29;;;;;;;1.30;1.10;;;18.70;55.20;;;;;;5084036;28;20174;-65
2020/12/29 12:39:55;;;;;;;1.15;1.05;;;18.60;55.20;;;;;;5083911;28;20181;-65
2020/12/29 12:42:20;;;;;;;1.13;1.08;;;18.50;55.30;;;;;;5083907;28;20972;-66